Kelleys Island, OH

1:09 AM EST on January 27, 2015 (GMT -0500)
APRSWXNET Marblehead OH US | Change Station
CLOSE
Current Station
Personal Weather Station
Location: Lakeside, OH
Elevation: 671 ft
Nearby Weather Stations

Elev 671 ft 41.54 °N, 82.74 °W | Updated 39 minutes ago

Partly Cloudy
Partly Cloudy
13 °F
Feels Like 13 °F
N
1
Wind Variable Wind from WNW
Gusts 5.0 mph

Today
High -- | Low -- °F
--% Chance of Precip.
Yesterday
High -- | Low -- °F
Precip. -- in
7:47 AM 5:39 PM
Waxing Crescent, 51% visible
Pressure 29.96 in
Visibility 10.0 miles
Clouds Few 2600 ft
Windchill 13 °F
Dew Point 11 °F
Humidity 90%
Rainfall 0.00 in
Snow Depth Not available.
UV 0 out of 12
Pollen .10 out of 12
Air Quality Not available.
Flu Activity Not available.
METAR KPCW 270553Z AUTO 30004KT 10SM FEW026 M11/M13 A2996 RMK AO2 55003

More Conditions Fewer Conditions

Pressure 29.96 in
Visibility 10.0 miles
Clouds Few 2600 ft
Windchill 13 °F
Dew Point 11 °F
Humidity 90%
Rainfall 0.00 in
Snow Depth Not available.
UV 0 out of 12
Pollen .10 out of 12
Air Quality Not available.
Flu Activity Not available.
METAR KPCW 270553Z AUTO 30004KT 10SM FEW026 M11/M13 A2996 RMK AO2 55003

More Conditions Fewer Conditions

10-Day Weather Forecast

Almanac

Astronomy

Jan. 27, 2015 Rise Set
Actual Time
Civil Twilight
Nautical Twilight
Astronomical Twilight
Moon
Length of Visible Light
Length of Day
Tomorrow will be .
, % of the Moon is Illuminated

Today's Extremes

State Highs State Lows

Community

WunderPhotos

Upload Photos

1,790,542 photos uploaded!

WunderBlogs® & News

Nearby

Air Quality

  Air Quality AQ Index Pollutant
Not available.

Snow Depth

Station Depth Elevation

Earthquake Activity

City Distance Mag. Time & Date
Minimum magnitude displayed is 2.5.

Coastal Water Temperatures

Place Temperature

Nearby Weather Stations